sensor_id;sensor_type;location;lat;lon;timestamp;pressure;altitude;pressure_sealevel;temperature;humidity
50011;BME280;35899;50.352;19.390;2024-03-17T00:00:07;97884.24;;;6.89;100.00
50011;BME280;35899;50.352;19.390;2024-03-17T00:02:35;97889.33;;;6.84;100.00
50011;BME280;35899;50.352;19.390;2024-03-17T00:05:02;97891.44;;;6.80;100.00
50011;BME280;35899;50.352;19.390;2024-03-17T00:07:30;97894.05;;;6.76;100.00
50011;BME280;35899;50.352;19.390;2024-03-17T00:09:58;97896.98;;;6.73;100.00
50011;BME280;35899;50.352;19.390;2024-03-17T00:12:26;97901.13;;;6.70;100.00
50011;BME280;35899;50.352;19.390;2024-03-17T00:14:53;97902.78;;;6.68;100.00
50011;BME280;35899;50.352;19.390;2024-03-17T00:17:21;97907.85;;;6.66;100.00
50011;BME280;35899;50.352;19.390;2024-03-17T00:19:49;97914.07;;;6.66;100.00
50011;BME280;35899;50.352;19.390;2024-03-17T00:22:16;97916.55;;;6.64;100.00
50011;BME280;35899;50.352;19.390;2024-03-17T00:24:44;97919.71;;;6.63;100.00
50011;BME280;35899;50.352;19.390;2024-03-17T00:27:11;97930.41;;;6.62;100.00
50011;BME280;35899;50.352;19.390;2024-03-17T00:29:39;97939.11;;;6.57;100.00
50011;BME280;35899;50.352;19.390;2024-03-17T00:32:07;97947.24;;;6.43;100.00
50011;BME280;35899;50.352;19.390;2024-03-17T00:34:38;97954.98;;;6.30;100.00
50011;BME280;35899;50.352;19.390;2024-03-17T00:37:06;97958.83;;;6.12;100.00
50011;BME280;35899;50.352;19.390;2024-03-17T00:39:34;97966.21;;;5.95;100.00
50011;BME280;35899;50.352;19.390;2024-03-17T00:42:01;97960.63;;;5.83;100.00
50011;BME280;35899;50.352;19.390;2024-03-17T00:44:30;97959.95;;;5.73;100.00
50011;BME280;35899;50.352;19.390;2024-03-17T00:46:58;97960.98;;;5.65;100.00
50011;BME280;35899;50.352;19.390;2024-03-17T00:49:26;97954.95;;;5.59;100.00
50011;BME280;35899;50.352;19.390;2024-03-17T00:51:53;97961.84;;;5.55;100.00
50011;BME280;35899;50.352;19.390;2024-03-17T00:54:21;97966.84;;;5.51;100.00
50011;BME280;35899;50.352;19.390;2024-03-17T00:56:49;97969.54;;;5.48;100.00
50011;BME280;35899;50.352;19.390;2024-03-17T00:59:16;97973.73;;;5.44;100.00
50011;BME280;35899;50.352;19.390;2024-03-17T01:01:44;97975.10;;;5.40;100.00
50011;BME280;35899;50.352;19.390;2024-03-17T01:04:11;97970.96;;;5.37;100.00
50011;BME280;35899;50.352;19.390;2024-03-17T01:06:39;97975.91;;;5.34;100.00
50011;BME280;35899;50.352;19.390;2024-03-17T01:09:07;97978.55;;;5.33;100.00
50011;BME280;35899;50.352;19.390;2024-03-17T01:11:35;97977.27;;;5.31;100.00
50011;BME280;35899;50.352;19.390;2024-03-17T01:14:02;97968.41;;;5.29;100.00
50011;BME280;35899;50.352;19.390;2024-03-17T01:16:30;97962.33;;;5.27;100.00
50011;BME280;35899;50.352;19.390;2024-03-17T01:18:58;97965.51;;;5.26;100.00
50011;BME280;35899;50.352;19.390;2024-03-17T01:21:25;97964.14;;;5.25;100.00
50011;BME280;35899;50.352;19.390;2024-03-17T01:23:53;97959.05;;;5.24;100.00
50011;BME280;35899;50.352;19.390;2024-03-17T01:26:21;97964.97;;;5.22;100.00
50011;BME280;35899;50.352;19.390;2024-03-17T01:28:49;97966.36;;;5.22;100.00
50011;BME280;35899;50.352;19.390;2024-03-17T01:31:16;97971.15;;;5.22;100.00
50011;BME280;35899;50.352;19.390;2024-03-17T01:33:44;97972.86;;;5.22;100.00
50011;BME280;35899;50.352;19.390;2024-03-17T01:36:12;97970.65;;;5.22;100.00
50011;BME280;35899;50.352;19.390;2024-03-17T01:38:39;97977.71;;;5.22;100.00
50011;BME280;35899;50.352;19.390;2024-03-17T01:41:07;97982.34;;;5.21;100.00
50011;BME280;35899;50.352;19.390;2024-03-17T01:43:34;97985.15;;;5.20;100.00
50011;BME280;35899;50.352;19.390;2024-03-17T01:46:02;97989.16;;;5.19;100.00
50011;BME280;35899;50.352;19.390;2024-03-17T01:48:31;97991.39;;;5.19;100.00
50011;BME280;35899;50.352;19.390;2024-03-17T01:50:58;97992.13;;;5.17;100.00
50011;BME280;35899;50.352;19.390;2024-03-17T01:53:26;97996.59;;;5.18;100.00
50011;BME280;35899;50.352;19.390;2024-03-17T01:55:59;97990.63;;;5.17;100.00
50011;BME280;35899;50.352;19.390;2024-03-17T01:58:27;97990.04;;;5.18;100.00
50011;BME280;35899;50.352;19.390;2024-03-17T02:01:01;97986.38;;;5.16;100.00
50011;BME280;35899;50.352;19.390;2024-03-17T02:03:28;97984.92;;;5.14;100.00
50011;BME280;35899;50.352;19.390;2024-03-17T02:05:58;97995.42;;;5.14;100.00
50011;BME280;35899;50.352;19.390;2024-03-17T02:08:27;97997.17;;;5.12;100.00
50011;BME280;35899;50.352;19.390;2024-03-17T02:10:55;98001.80;;;5.13;100.00
50011;BME280;35899;50.352;19.390;2024-03-17T02:13:22;98007.28;;;5.13;100.00
50011;BME280;35899;50.352;19.390;2024-03-17T02:15:50;98008.61;;;5.14;100.00
50011;BME280;35899;50.352;19.390;2024-03-17T02:18:18;98007.93;;;5.13;100.00
50011;BME280;35899;50.352;19.390;2024-03-17T02:20:45;98008.95;;;5.14;100.00
50011;BME280;35899;50.352;19.390;2024-03-17T02:23:13;98011.31;;;5.15;100.00
50011;BME280;35899;50.352;19.390;2024-03-17T02:25:41;98013.85;;;5.15;100.00
50011;BME280;35899;50.352;19.390;2024-03-17T02:28:08;98014.40;;;5.14;100.00
50011;BME280;35899;50.352;19.390;2024-03-17T02:30:36;98016.55;;;5.13;100.00
50011;BME280;35899;50.352;19.390;2024-03-17T02:33:04;98021.16;;;5.10;100.00
50011;BME280;35899;50.352;19.390;2024-03-17T02:35:31;98025.41;;;5.06;100.00
50011;BME280;35899;50.352;19.390;2024-03-17T02:37:59;98026.98;;;5.06;100.00
50011;BME280;35899;50.352;19.390;2024-03-17T02:40:27;98029.53;;;5.06;100.00
50011;BME280;35899;50.352;19.390;2024-03-17T02:42:54;98031.13;;;5.05;100.00
50011;BME280;35899;50.352;19.390;2024-03-17T02:45:22;98034.95;;;5.04;100.00
50011;BME280;35899;50.352;19.390;2024-03-17T02:47:50;98029.38;;;5.02;100.00
50011;BME280;35899;50.352;19.390;2024-03-17T02:50:17;98031.08;;;5.02;100.00
50011;BME280;35899;50.352;19.390;2024-03-17T02:52:45;98037.26;;;5.02;100.00
50011;BME280;35899;50.352;19.390;2024-03-17T02:55:13;98032.40;;;5.00;100.00
50011;BME280;35899;50.352;19.390;2024-03-17T02:57:40;98035.81;;;5.00;100.00
50011;BME280;35899;50.352;19.390;2024-03-17T03:00:08;98036.75;;;4.98;100.00
50011;BME280;35899;50.352;19.390;2024-03-17T03:02:36;98039.08;;;4.96;100.00
50011;BME280;35899;50.352;19.390;2024-03-17T03:05:05;98049.52;;;4.93;100.00
50011;BME280;35899;50.352;19.390;2024-03-17T03:07:33;98046.34;;;4.91;100.00
50011;BME280;35899;50.352;19.390;2024-03-17T03:10:01;98051.86;;;4.90;100.00
50011;BME280;35899;50.352;19.390;2024-03-17T03:12:29;98046.48;;;4.88;100.00
50011;BME280;35899;50.352;19.390;2024-03-17T03:14:56;98049.77;;;4.84;100.00
50011;BME280;35899;50.352;19.390;2024-03-17T03:17:24;98059.44;;;4.78;100.00
50011;BME280;35899;50.352;19.390;2024-03-17T03:19:51;98064.23;;;4.75;100.00
50011;BME280;35899;50.352;19.390;2024-03-17T03:22:19;98065.35;;;4.68;100.00
50011;BME280;35899;50.352;19.390;2024-03-17T03:24:47;98067.84;;;4.63;100.00
50011;BME280;35899;50.352;19.390;2024-03-17T03:27:14;98067.40;;;4.57;100.00
50011;BME280;35899;50.352;19.390;2024-03-17T03:29:42;98068.35;;;4.51;100.00
50011;BME280;35899;50.352;19.390;2024-03-17T03:32:10;98073.11;;;4.44;100.00
50011;BME280;35899;50.352;19.390;2024-03-17T03:34:37;98079.58;;;4.37;100.00
50011;BME280;35899;50.352;19.390;2024-03-17T03:37:05;98080.11;;;4.32;100.00
50011;BME280;35899;50.352;19.390;2024-03-17T03:39:33;98084.42;;;4.27;100.00
50011;BME280;35899;50.352;19.390;2024-03-17T03:42:00;98086.41;;;4.21;100.00
50011;BME280;35899;50.352;19.390;2024-03-17T03:44:28;98087.19;;;4.14;100.00
50011;BME280;35899;50.352;19.390;2024-03-17T03:46:56;98088.27;;;4.09;100.00
50011;BME280;35899;50.352;19.390;2024-03-17T03:49:25;98092.59;;;4.04;100.00
50011;BME280;35899;50.352;19.390;2024-03-17T03:51:52;98093.54;;;3.97;100.00
50011;BME280;35899;50.352;19.390;2024-03-17T03:54:20;98096.16;;;3.92;100.00
50011;BME280;35899;50.352;19.390;2024-03-17T03:56:48;98098.65;;;3.85;100.00
50011;BME280;35899;50.352;19.390;2024-03-17T03:59:16;98101.63;;;3.79;100.00
50011;BME280;35899;50.352;19.390;2024-03-17T04:01:43;98100.41;;;3.75;100.00
50011;BME280;35899;50.352;19.390;2024-03-17T04:04:11;98107.79;;;3.71;100.00
50011;BME280;35899;50.352;19.390;2024-03-17T04:06:38;98105.27;;;3.65;100.00
50011;BME280;35899;50.352;19.390;2024-03-17T04:09:06;98110.26;;;3.60;100.00
50011;BME280;35899;50.352;19.390;2024-03-17T04:11:34;98109.27;;;3.54;100.00
50011;BME280;35899;50.352;19.390;2024-03-17T04:14:02;98117.69;;;3.49;100.00
50011;BME280;35899;50.352;19.390;2024-03-17T04:16:29;98117.50;;;3.45;100.00
50011;BME280;35899;50.352;19.390;2024-03-17T04:18:57;98116.14;;;3.40;100.00
50011;BME280;35899;50.352;19.390;2024-03-17T04:21:25;98114.98;;;3.35;100.00
50011;BME280;35899;50.352;19.390;2024-03-17T04:23:52;98115.17;;;3.30;100.00
50011;BME280;35899;50.352;19.390;2024-03-17T04:26:20;98117.94;;;3.24;100.00
50011;BME280;35899;50.352;19.390;2024-03-17T04:28:47;98122.78;;;3.19;100.00
50011;BME280;35899;50.352;19.390;2024-03-17T04:31:15;98128.43;;;3.14;100.00
50011;BME280;35899;50.352;19.390;2024-03-17T04:33:43;98127.89;;;3.09;100.00
50011;BME280;35899;50.352;19.390;2024-03-17T04:36:10;98126.16;;;3.06;100.00
50011;BME280;35899;50.352;19.390;2024-03-17T04:38:38;98127.52;;;3.01;100.00
50011;BME280;35899;50.352;19.390;2024-03-17T04:41:06;98133.04;;;2.95;100.00
50011;BME280;35899;50.352;19.390;2024-03-17T04:43:34;98137.52;;;2.89;100.00
50011;BME280;35899;50.352;19.390;2024-03-17T04:46:03;98138.70;;;2.85;100.00
50011;BME280;35899;50.352;19.390;2024-03-17T04:48:32;98138.14;;;2.81;100.00
50011;BME280;35899;50.352;19.390;2024-03-17T04:51:00;98143.59;;;2.78;100.00
50011;BME280;35899;50.352;19.390;2024-03-17T04:53:28;98142.14;;;2.74;100.00
50011;BME280;35899;50.352;19.390;2024-03-17T04:56:03;98144.35;;;2.70;100.00
50011;BME280;35899;50.352;19.390;2024-03-17T04:58:32;98147.03;;;2.66;100.00
50011;BME280;35899;50.352;19.390;2024-03-17T05:01:05;98142.89;;;2.63;100.00
50011;BME280;35899;50.352;19.390;2024-03-17T05:03:33;98145.02;;;2.60;100.00
50011;BME280;35899;50.352;19.390;2024-03-17T05:06:03;98149.04;;;2.58;100.00
50011;BME280;35899;50.352;19.390;2024-03-17T05:08:32;98149.59;;;2.57;100.00
50011;BME280;35899;50.352;19.390;2024-03-17T05:11:01;98156.09;;;2.57;100.00
50011;BME280;35899;50.352;19.390;2024-03-17T05:13:29;98160.55;;;2.56;100.00
50011;BME280;35899;50.352;19.390;2024-03-17T05:15:57;98155.79;;;2.55;100.00
50011;BME280;35899;50.352;19.390;2024-03-17T05:18:25;98160.36;;;2.57;100.00
50011;BME280;35899;50.352;19.390;2024-03-17T05:23:27;98160.48;;;2.67;100.00
50011;BME280;35899;50.352;19.390;2024-03-17T05:25:56;98156.48;;;2.75;100.00
50011;BME280;35899;50.352;19.390;2024-03-17T05:28:26;98155.90;;;2.82;100.00
50011;BME280;35899;50.352;19.390;2024-03-17T05:30:54;98159.79;;;2.88;100.00
50011;BME280;35899;50.352;19.390;2024-03-17T05:33:23;98159.39;;;2.94;100.00
50011;BME280;35899;50.352;19.390;2024-03-17T05:35:56;98163.09;;;3.00;100.00
50011;BME280;35899;50.352;19.390;2024-03-17T05:38:25;98165.77;;;3.07;100.00
50011;BME280;35899;50.352;19.390;2024-03-17T05:40:56;98165.56;;;3.13;100.00
50011;BME280;35899;50.352;19.390;2024-03-17T05:43:25;98164.67;;;3.19;100.00
50011;BME280;35899;50.352;19.390;2024-03-17T05:45:54;98167.80;;;3.27;100.00
50011;BME280;35899;50.352;19.390;2024-03-17T05:48:22;98168.80;;;3.32;100.00
50011;BME280;35899;50.352;19.390;2024-03-17T05:50:50;98172.48;;;3.35;100.00
50011;BME280;35899;50.352;19.390;2024-03-17T05:53:18;98180.23;;;3.38;100.00
50011;BME280;35899;50.352;19.390;2024-03-17T05:55:46;98182.10;;;3.42;100.00
50011;BME280;35899;50.352;19.390;2024-03-17T05:58:14;98181.41;;;3.47;100.00
50011;BME280;35899;50.352;19.390;2024-03-17T06:00:42;98183.94;;;3.53;100.00
50011;BME280;35899;50.352;19.390;2024-03-17T06:03:10;98189.20;;;3.59;100.00
50011;BME280;35899;50.352;19.390;2024-03-17T06:05:39;98180.84;;;3.67;100.00
50011;BME280;35899;50.352;19.390;2024-03-17T06:08:07;98180.05;;;3.74;100.00
50011;BME280;35899;50.352;19.390;2024-03-17T06:10:36;98186.35;;;3.79;100.00
50011;BME280;35899;50.352;19.390;2024-03-17T06:13:04;98181.22;;;3.84;100.00
50011;BME280;35899;50.352;19.390;2024-03-17T06:15:32;98180.64;;;3.90;100.00
50011;BME280;35899;50.352;19.390;2024-03-17T06:17:59;98185.41;;;3.95;100.00
50011;BME280;35899;50.352;19.390;2024-03-17T06:20:27;98187.41;;;4.01;100.00
50011;BME280;35899;50.352;19.390;2024-03-17T06:22:55;98187.88;;;4.06;100.00
50011;BME280;35899;50.352;19.390;2024-03-17T06:25:23;98188.31;;;4.08;100.00
50011;BME280;35899;50.352;19.390;2024-03-17T06:27:51;98192.10;;;4.12;100.00
50011;BME280;35899;50.352;19.390;2024-03-17T06:30:19;98190.56;;;4.16;100.00
50011;BME280;35899;50.352;19.390;2024-03-17T06:32:47;98192.48;;;4.23;100.00
50011;BME280;35899;50.352;19.390;2024-03-17T06:35:15;98200.30;;;4.25;100.00
50011;BME280;35899;50.352;19.390;2024-03-17T06:37:42;98199.48;;;4.24;100.00
50011;BME280;35899;50.352;19.390;2024-03-17T06:40:14;98200.48;;;4.17;100.00
50011;BME280;35899;50.352;19.390;2024-03-17T06:42:42;98201.89;;;4.16;100.00
50011;BME280;35899;50.352;19.390;2024-03-17T06:45:10;98203.54;;;4.18;100.00
50011;BME280;35899;50.352;19.390;2024-03-17T06:47:38;98206.60;;;4.26;100.00
50011;BME280;35899;50.352;19.390;2024-03-17T06:50:06;98207.59;;;4.36;100.00
50011;BME280;35899;50.352;19.390;2024-03-17T06:52:34;98209.10;;;4.41;100.00
50011;BME280;35899;50.352;19.390;2024-03-17T06:55:02;98206.27;;;4.43;100.00
50011;BME280;35899;50.352;19.390;2024-03-17T06:57:29;98209.52;;;4.56;100.00
50011;BME280;35899;50.352;19.390;2024-03-17T06:59:57;98207.94;;;4.61;99.32
50011;BME280;35899;50.352;19.390;2024-03-17T07:02:25;98211.27;;;4.63;99.44
50011;BME280;35899;50.352;19.390;2024-03-17T07:04:52;98212.34;;;4.62;98.47
50011;BME280;35899;50.352;19.390;2024-03-17T07:07:20;98227.58;;;4.59;97.13
50011;BME280;35899;50.352;19.390;2024-03-17T07:09:48;98222.55;;;4.51;95.86
50011;BME280;35899;50.352;19.390;2024-03-17T07:12:16;98220.47;;;4.56;95.57
50011;BME280;35899;50.352;19.390;2024-03-17T07:14:44;98225.10;;;4.64;96.15
50011;BME280;35899;50.352;19.390;2024-03-17T07:17:11;98230.53;;;4.53;94.24
50011;BME280;35899;50.352;19.390;2024-03-17T07:19:39;98229.42;;;4.51;94.49
50011;BME280;35899;50.352;19.390;2024-03-17T07:22:07;98232.55;;;4.50;94.05
50011;BME280;35899;50.352;19.390;2024-03-17T07:24:35;98227.95;;;4.49;93.36
50011;BME280;35899;50.352;19.390;2024-03-17T07:27:03;98229.35;;;4.48;92.12
50011;BME280;35899;50.352;19.390;2024-03-17T07:29:30;98234.99;;;4.49;91.21
50011;BME280;35899;50.352;19.390;2024-03-17T07:31:58;98229.92;;;4.60;92.10
50011;BME280;35899;50.352;19.390;2024-03-17T07:34:26;98230.92;;;4.81;92.15
50011;BME280;35899;50.352;19.390;2024-03-17T07:36:53;98233.92;;;4.87;90.90
50011;BME280;35899;50.352;19.390;2024-03-17T07:39:21;98242.73;;;4.94;90.97
50011;BME280;35899;50.352;19.390;2024-03-17T07:41:52;98237.73;;;4.95;90.37
50011;BME280;35899;50.352;19.390;2024-03-17T07:44:20;98233.84;;;4.94;90.83
50011;BME280;35899;50.352;19.390;2024-03-17T07:46:47;98231.33;;;5.00;91.99
50011;BME280;35899;50.352;19.390;2024-03-17T07:49:15;98231.33;;;5.08;90.00
50011;BME280;35899;50.352;19.390;2024-03-17T07:51:43;98237.09;;;5.22;89.81
50011;BME280;35899;50.352;19.390;2024-03-17T07:54:10;98238.46;;;5.38;89.26
50011;BME280;35899;50.352;19.390;2024-03-17T07:56:38;98233.54;;;5.48;88.62
50011;BME280;35899;50.352;19.390;2024-03-17T07:59:05;98239.77;;;5.62;88.19
50011;BME280;35899;50.352;19.390;2024-03-17T08:01:33;98239.59;;;5.81;88.03
50011;BME280;35899;50.352;19.390;2024-03-17T08:04:01;98241.20;;;5.83;87.17
50011;BME280;35899;50.352;19.390;2024-03-17T08:06:28;98235.75;;;5.87;87.43
50011;BME280;35899;50.352;19.390;2024-03-17T08:08:56;98232.52;;;5.86;87.27
50011;BME280;35899;50.352;19.390;2024-03-17T08:11:25;98233.95;;;6.04;86.72
50011;BME280;35899;50.352;19.390;2024-03-17T08:13:52;98226.59;;;6.11;84.78
50011;BME280;35899;50.352;19.390;2024-03-17T08:16:20;98232.73;;;6.04;85.26
50011;BME280;35899;50.352;19.390;2024-03-17T08:18:48;98231.14;;;6.05;85.03
50011;BME280;35899;50.352;19.390;2024-03-17T08:21:15;98232.66;;;6.13;83.77
50011;BME280;35899;50.352;19.390;2024-03-17T08:23:43;98226.95;;;6.25;83.24
50011;BME280;35899;50.352;19.390;2024-03-17T08:26:10;98236.58;;;6.36;82.05
50011;BME280;35899;50.352;19.390;2024-03-17T08:28:39;98234.00;;;6.21;80.61
50011;BME280;35899;50.352;19.390;2024-03-17T08:31:06;98235.34;;;6.07;79.80
50011;BME280;35899;50.352;19.390;2024-03-17T08:33:34;98234.71;;;6.02;80.83
50011;BME280;35899;50.352;19.390;2024-03-17T08:36:04;98243.71;;;5.93;78.99
50011;BME280;35899;50.352;19.390;2024-03-17T08:38:33;98230.05;;;5.80;78.06
50011;BME280;35899;50.352;19.390;2024-03-17T08:41:06;98228.38;;;5.75;77.74
50011;BME280;35899;50.352;19.390;2024-03-17T08:43:35;98226.69;;;5.66;77.91
50011;BME280;35899;50.352;19.390;2024-03-17T08:46:08;98220.02;;;5.77;78.57
50011;BME280;35899;50.352;19.390;2024-03-17T08:48:37;98218.92;;;5.95;78.63
50011;BME280;35899;50.352;19.390;2024-03-17T08:51:06;98211.98;;;6.00;78.32
50011;BME280;35899;50.352;19.390;2024-03-17T08:53:34;98210.56;;;6.19;79.45
50011;BME280;35899;50.352;19.390;2024-03-17T08:56:03;98201.04;;;6.38;79.56
50011;BME280;35899;50.352;19.390;2024-03-17T08:58:31;98203.79;;;6.52;78.79
50011;BME280;35899;50.352;19.390;2024-03-17T09:00:58;98201.98;;;6.72;78.75
50011;BME280;35899;50.352;19.390;2024-03-17T09:03:30;98203.72;;;6.88;76.62
50011;BME280;35899;50.352;19.390;2024-03-17T09:05:58;98203.67;;;7.10;74.22
50011;BME280;35899;50.352;19.390;2024-03-17T09:08:25;98201.02;;;7.37;73.62
50011;BME280;35899;50.352;19.390;2024-03-17T09:10:54;98205.88;;;7.60;73.23
50011;BME280;35899;50.352;19.390;2024-03-17T09:13:24;98198.73;;;7.61;72.84
50011;BME280;35899;50.352;19.390;2024-03-17T09:16:00;98205.24;;;7.42;70.98
50011;BME280;35899;50.352;19.390;2024-03-17T09:18:33;98203.65;;;7.27;70.84
50011;BME280;35899;50.352;19.390;2024-03-17T09:21:03;98207.36;;;7.25;68.85
50011;BME280;35899;50.352;19.390;2024-03-17T09:23:32;98196.63;;;7.22;69.95
50011;BME280;35899;50.352;19.390;2024-03-17T09:26:04;98205.23;;;7.20;69.41
50011;BME280;35899;50.352;19.390;2024-03-17T09:28:32;98193.10;;;7.37;70.12
50011;BME280;35899;50.352;19.390;2024-03-17T09:31:00;98194.76;;;7.71;70.75
50011;BME280;35899;50.352;19.390;2024-03-17T09:33:29;98196.16;;;7.99;69.13
50011;BME280;35899;50.352;19.390;2024-03-17T09:36:05;98201.56;;;8.01;67.19
50011;BME280;35899;50.352;19.390;2024-03-17T09:38:34;98207.23;;;8.01;67.23
50011;BME280;35899;50.352;19.390;2024-03-17T09:41:06;98200.98;;;8.20;68.49
50011;BME280;35899;50.352;19.390;2024-03-17T09:43:35;98205.64;;;8.39;68.41
50011;BME280;35899;50.352;19.390;2024-03-17T09:46:04;98206.05;;;8.22;66.73
50011;BME280;35899;50.352;19.390;2024-03-17T09:48:32;98209.93;;;8.09;66.47
50011;BME280;35899;50.352;19.390;2024-03-17T09:51:02;98202.13;;;8.31;66.83
50011;BME280;35899;50.352;19.390;2024-03-17T09:53:32;98196.86;;;8.48;65.81
50011;BME280;35899;50.352;19.390;2024-03-17T09:56:05;98208.85;;;8.83;64.83
50011;BME280;35899;50.352;19.390;2024-03-17T09:58:36;98197.46;;;8.89;64.79
50011;BME280;35899;50.352;19.390;2024-03-17T10:01:03;98201.96;;;8.94;64.21
50011;BME280;35899;50.352;19.390;2024-03-17T10:06:10;98194.63;;;9.86;62.31
50011;BME280;35899;50.352;19.390;2024-03-17T10:08:50;98197.80;;;10.48;61.52
50011;BME280;35899;50.352;19.390;2024-03-17T10:11:22;98197.02;;;10.63;60.72
50011;BME280;35899;50.352;19.390;2024-03-17T10:14:07;98186.16;;;11.19;58.06
50011;BME280;35899;50.352;19.390;2024-03-17T10:16:37;98180.02;;;11.00;57.27
50011;BME280;35899;50.352;19.390;2024-03-17T10:21:50;98189.35;;;10.02;55.70
50011;BME280;35899;50.352;19.390;2024-03-17T10:24:26;98187.99;;;9.49;56.01
50011;BME280;35899;50.352;19.390;2024-03-17T10:26:58;98188.73;;;9.42;57.15
50011;BME280;35899;50.352;19.390;2024-03-17T10:29:29;98182.80;;;9.43;57.96
50011;BME280;35899;50.352;19.390;2024-03-17T10:32:15;98182.80;;;9.38;58.64
50011;BME280;35899;50.352;19.390;2024-03-17T10:34:44;98174.13;;;9.07;57.32
50011;BME280;35899;50.352;19.390;2024-03-17T10:37:16;98176.50;;;8.84;58.67
50011;BME280;35899;50.352;19.390;2024-03-17T10:39:46;98175.50;;;8.63;58.95
50011;BME280;35899;50.352;19.390;2024-03-17T10:42:29;98172.22;;;8.48;59.20
50011;BME280;35899;50.352;19.390;2024-03-17T10:44:58;98172.73;;;8.23;58.09
50011;BME280;35899;50.352;19.390;2024-03-17T10:47:27;98170.79;;;8.09;58.94
50011;BME280;35899;50.352;19.390;2024-03-17T10:49:55;98173.80;;;8.01;59.68
50011;BME280;35899;50.352;19.390;2024-03-17T10:52:24;98163.61;;;7.92;59.81
50011;BME280;35899;50.352;19.390;2024-03-17T10:54:55;98161.58;;;7.95;60.26
50011;BME280;35899;50.352;19.390;2024-03-17T10:57:45;98164.30;;;7.93;60.51
50011;BME280;35899;50.352;19.390;2024-03-17T11:00:14;98162.86;;;7.87;60.22
50011;BME280;35899;50.352;19.390;2024-03-17T11:02:42;98162.31;;;8.76;59.27
50011;BME280;35899;50.352;19.390;2024-03-17T11:05:15;98160.75;;;8.93;58.92
50011;BME280;35899;50.352;19.390;2024-03-17T11:07:45;98160.98;;;8.84;58.72
50011;BME280;35899;50.352;19.390;2024-03-17T11:10:27;98156.99;;;9.02;59.73
50011;BME280;35899;50.352;19.390;2024-03-17T11:12:59;98153.80;;;9.48;58.55
50011;BME280;35899;50.352;19.390;2024-03-17T11:20:37;98146.09;;;11.44;56.24
50011;BME280;35899;50.352;19.390;2024-03-17T11:23:06;98147.45;;;12.95;55.60
50011;BME280;35899;50.352;19.390;2024-03-17T11:28:04;98127.91;;;15.81;49.15
50011;BME280;35899;50.352;19.390;2024-03-17T11:38:52;98129.10;;;18.65;41.78
50011;BME280;35899;50.352;19.390;2024-03-17T11:46:41;98116.35;;;19.18;38.62
50011;BME280;35899;50.352;19.390;2024-03-17T11:49:23;98113.04;;;18.90;38.78
50011;BME280;35899;50.352;19.390;2024-03-17T11:51:54;98116.19;;;18.60;38.78
50011;BME280;35899;50.352;19.390;2024-03-17T11:54:30;98119.90;;;17.96;38.19
50011;BME280;35899;50.352;19.390;2024-03-17T11:59:30;98120.49;;;15.72;38.18
50011;BME280;35899;50.352;19.390;2024-03-17T12:01:57;98118.18;;;14.75;39.89
50011;BME280;35899;50.352;19.390;2024-03-17T12:04:25;98113.25;;;15.50;39.85
50011;BME280;35899;50.352;19.390;2024-03-17T12:06:59;98117.04;;;17.10;39.84
50011;BME280;35899;50.352;19.390;2024-03-17T12:09:30;98109.13;;;18.21;37.83
50011;BME280;35899;50.352;19.390;2024-03-17T12:12:05;98105.35;;;17.96;36.84
50011;BME280;35899;50.352;19.390;2024-03-17T12:14:33;98106.38;;;17.37;37.44
50011;BME280;35899;50.352;19.390;2024-03-17T12:17:09;98097.16;;;18.13;37.26
50011;BME280;35899;50.352;19.390;2024-03-17T12:19:38;98092.52;;;19.72;36.61
50011;BME280;35899;50.352;19.390;2024-03-17T12:22:06;98080.51;;;20.81;35.95
50011;BME280;35899;50.352;19.390;2024-03-17T12:24:35;98082.74;;;21.70;34.72
50011;BME280;35899;50.352;19.390;2024-03-17T12:27:07;98080.02;;;22.10;31.24
50011;BME280;35899;50.352;19.390;2024-03-17T12:29:36;98081.70;;;22.24;31.39
50011;BME280;35899;50.352;19.390;2024-03-17T12:32:29;98075.14;;;22.74;31.83
50011;BME280;35899;50.352;19.390;2024-03-17T12:34:57;98071.10;;;22.65;31.56
50011;BME280;35899;50.352;19.390;2024-03-17T12:37:27;98071.02;;;20.43;32.09
50011;BME280;35899;50.352;19.390;2024-03-17T12:39:55;98082.05;;;18.07;33.23
50011;BME280;35899;50.352;19.390;2024-03-17T12:42:24;98080.08;;;16.08;34.44
50011;BME280;35899;50.352;19.390;2024-03-17T12:44:53;98084.55;;;14.64;36.44
50011;BME280;35899;50.352;19.390;2024-03-17T12:47:22;98080.14;;;13.54;37.50
50011;BME280;35899;50.352;19.390;2024-03-17T12:49:54;98080.58;;;12.47;38.67
50011;BME280;35899;50.352;19.390;2024-03-17T12:52:30;98079.65;;;11.77;40.30
50011;BME280;35899;50.352;19.390;2024-03-17T12:57:32;98074.35;;;11.08;42.06
50011;BME280;35899;50.352;19.390;2024-03-17T13:00:00;98074.16;;;10.73;42.27
50011;BME280;35899;50.352;19.390;2024-03-17T13:02:28;98072.16;;;10.36;42.41
50011;BME280;35899;50.352;19.390;2024-03-17T13:05:15;98074.04;;;10.17;43.41
50011;BME280;35899;50.352;19.390;2024-03-17T13:07:44;98078.40;;;10.09;43.89
50011;BME280;35899;50.352;19.390;2024-03-17T13:10:14;98076.83;;;9.88;44.31
50011;BME280;35899;50.352;19.390;2024-03-17T13:12:43;98072.23;;;9.55;44.80
50011;BME280;35899;50.352;19.390;2024-03-17T13:15:16;98079.60;;;9.33;45.41
50011;BME280;35899;50.352;19.390;2024-03-17T13:17:44;98071.05;;;9.07;45.65
50011;BME280;35899;50.352;19.390;2024-03-17T13:20:16;98071.96;;;8.89;46.22
50011;BME280;35899;50.352;19.390;2024-03-17T13:22:45;98067.16;;;8.80;46.64
50011;BME280;35899;50.352;19.390;2024-03-17T13:25:23;98067.77;;;8.70;46.76
50011;BME280;35899;50.352;19.390;2024-03-17T13:27:51;98064.66;;;9.72;46.52
50011;BME280;35899;50.352;19.390;2024-03-17T13:30:20;98058.11;;;10.02;45.80
50011;BME280;35899;50.352;19.390;2024-03-17T13:32:49;98059.53;;;10.36;45.53
50011;BME280;35899;50.352;19.390;2024-03-17T13:35:19;98055.23;;;10.38;45.89